Cisco, Utah
Current Conditions -  °F | °C
As of 5:05 PM on Friday 19 Dec 2014 (Local Time) from KCNY Reporting Station
Few Clouds Few Clouds  
Wind Chill: 33°   Ceiling: Unl
Heat Index: 37°   Visibility: 10mi
Dew Point: 31°   Wind: 5mph
Humidity: 79%   Direction: 330°NNW
Pressure: 30.2"   Gusts: NA
Location:  38.97°N, 109.32°W
Report Text: KCNY 200005Z AUTO 33004KT 10SM FEW028 03/M01 A3020 RMK AO2 T00281006
Loading
Personal Weather Stations






























Interactive Weather Map New forecast layout! Learn more

10-Day Weather Forecast

Advertisements
Track Severe Weather on mobile